createdAt,value
2019-04-25T00:00:44.218Z,78.66
2019-04-25T00:01:43.982Z,79.71
2019-04-25T00:02:43.959Z,78.85
2019-04-25T00:03:43.719Z,79.04
2019-04-25T00:04:43.464Z,79.99
2019-04-25T00:05:43.604Z,80.43
2019-04-25T00:06:44.000Z,80.43
2019-04-25T00:07:43.875Z,79.77
2019-04-25T00:08:44.119Z,79.96
2019-04-25T00:09:43.961Z,79.57
2019-04-25T00:10:43.810Z,79.77
2019-04-25T00:11:45.250Z,80.15
2019-04-25T00:12:43.580Z,79.86
2019-04-25T00:13:44.005Z,80.15
2019-04-25T00:14:43.725Z,80.33
2019-04-25T00:15:44.897Z,80.15
2019-04-25T00:16:43.806Z,80.43
2019-04-25T00:17:43.369Z,80.15
2019-04-25T00:18:43.052Z,79.57
2019-04-25T00:19:43.346Z,80.24
2019-04-25T00:20:43.558Z,80.43
2019-04-25T00:21:43.309Z,80.43
2019-04-25T00:22:43.470Z,80.24
2019-04-25T00:23:42.992Z,80.05
2019-04-25T00:24:43.254Z,80.43
2019-04-25T00:25:45.415Z,80.43
2019-04-25T00:26:44.040Z,80.43
2019-04-25T00:27:43.596Z,80.15
2019-04-25T00:28:43.595Z,80.53
2019-04-25T00:29:43.886Z,80.33
2019-04-25T00:30:43.447Z,80.43
2019-04-25T00:31:43.731Z,80.15
2019-04-25T00:32:42.955Z,81.38
2019-04-25T00:33:44.025Z,80.43
2019-04-25T00:34:44.237Z,80.33
2019-04-25T00:35:44.306Z,80.33
2019-04-25T00:36:43.487Z,80.72
2019-04-25T00:37:43.994Z,81.10
2019-04-25T00:38:46.228Z,80.43
2019-04-25T00:39:44.875Z,80.81
2019-04-25T00:40:42.698Z,80.77
2019-04-25T00:41:44.108Z,80.77
2019-04-25T00:42:42.938Z,80.58
2019-04-25T00:43:42.371Z,80.58
2019-04-25T00:44:42.850Z,80.58
2019-04-25T00:45:42.582Z,80.96
2019-04-25T00:46:44.831Z,80.58
2019-04-25T00:47:42.473Z,80.68
2019-04-25T00:48:42.371Z,80.49
2019-04-25T00:49:43.070Z,80.68
2019-04-25T00:50:42.383Z,80.96
2019-04-25T00:51:42.646Z,81.44
2019-04-25T00:52:42.357Z,80.96
2019-04-25T00:53:42.680Z,80.96
2019-04-25T00:54:41.402Z,80.96
2019-04-25T00:55:42.219Z,81.44
2019-04-25T00:56:43.274Z,81.06
2019-04-25T00:57:42.688Z,81.06
2019-04-25T00:58:42.185Z,81.25
2019-04-25T00:59:41.871Z,81.15
2019-04-25T01:00:41.585Z,80.96
2019-04-25T01:01:41.728Z,81.06
2019-04-25T01:02:40.401Z,81.06
2019-04-25T01:03:40.356Z,81.06
2019-04-25T01:04:41.807Z,81.06
2019-04-25T01:05:40.270Z,81.44
2019-04-25T01:06:41.652Z,81.06
2019-04-25T01:07:40.153Z,81.06
2019-04-25T01:08:41.460Z,80.58
2019-04-25T01:09:40.037Z,81.06
2019-04-25T01:10:41.555Z,81.35
2019-04-25T01:11:39.934Z,81.06
2019-04-25T01:12:41.586Z,81.25
2019-04-25T01:13:39.835Z,80.96
2019-04-25T01:14:41.866Z,81.06
2019-04-25T01:15:39.765Z,81.35
2019-04-25T01:16:39.681Z,81.15
2019-04-25T01:17:41.224Z,80.96
2019-04-25T01:18:39.576Z,80.96
2019-04-25T01:19:39.528Z,81.44
2019-04-25T01:20:39.488Z,81.15
2019-04-25T01:21:39.450Z,81.63
2019-04-25T01:22:39.374Z,81.35
2019-04-25T01:23:39.324Z,81.73
2019-04-25T01:24:39.271Z,81.15
2019-04-25T01:25:42.550Z,81.35
2019-04-25T01:26:39.192Z,81.54
2019-04-25T01:27:39.113Z,81.44
2019-04-25T01:28:39.065Z,81.21
2019-04-25T01:29:39.015Z,82.07
2019-04-25T01:30:38.954Z,81.78
2019-04-25T01:31:38.932Z,81.78
2019-04-25T01:32:38.855Z,81.78
2019-04-25T01:33:38.804Z,81.88
2019-04-25T01:34:38.754Z,82.07
2019-04-25T01:35:38.701Z,81.88
2019-04-25T01:36:38.680Z,81.68
2019-04-25T01:37:38.598Z,81.88
2019-04-25T01:38:38.550Z,81.97
2019-04-25T01:39:38.502Z,81.59
2019-04-25T01:40:38.447Z,81.78
2019-04-25T01:41:38.417Z,81.78
2019-04-25T01:42:38.340Z,82.26
2019-04-25T01:43:38.291Z,82.45
2019-04-25T01:44:38.239Z,81.78
2019-04-25T01:45:38.192Z,82.07
2019-04-25T01:46:38.140Z,82.07
2019-04-25T01:47:38.077Z,82.17
2019-04-25T01:48:38.031Z,82.26
2019-04-25T01:49:37.979Z,82.26
2019-04-25T01:50:37.928Z,81.97
2019-04-25T01:51:37.917Z,81.97
2019-04-25T01:52:37.827Z,82.26
2019-04-25T01:53:37.773Z,81.97
2019-04-25T01:54:37.721Z,82.26
2019-04-25T01:55:37.671Z,82.07
2019-04-25T01:56:37.639Z,82.26
2019-04-25T01:57:37.568Z,81.97
2019-04-25T01:58:37.513Z,82.17
2019-04-25T01:59:37.464Z,82.35
2019-04-25T02:00:37.409Z,82.35
2019-04-25T02:01:37.380Z,82.26
2019-04-25T02:02:37.307Z,82.17
2019-04-25T02:03:37.252Z,81.97
2019-04-25T02:04:37.200Z,82.17
2019-04-25T02:05:37.154Z,81.97
2019-04-25T02:06:37.117Z,82.64
2019-04-25T02:07:37.045Z,82.64
2019-04-25T02:08:36.990Z,82.73
2019-04-25T02:09:36.943Z,81.97
2019-04-25T02:10:36.888Z,82.54
2019-04-25T02:11:36.866Z,82.73
2019-04-25T02:12:36.797Z,82.17
2019-04-25T02:13:36.733Z,82.64
2019-04-25T02:14:36.682Z,82.64
2019-04-25T02:15:36.632Z,82.73
2019-04-25T02:16:36.603Z,81.88
2019-04-25T02:17:36.531Z,81.97
2019-04-25T02:18:36.477Z,81.88
2019-04-25T02:19:36.425Z,82.26
2019-04-25T02:20:36.373Z,81.97
2019-04-25T02:21:36.352Z,82.26
2019-04-25T02:22:36.263Z,82.26
2019-04-25T02:23:36.222Z,82.17
2019-04-25T02:24:36.168Z,82.26
2019-04-25T02:25:36.114Z,82.35
2019-04-25T02:26:36.085Z,82.26
2019-04-25T02:27:36.010Z,82.35
2019-04-25T02:28:35.958Z,82.83
2019-04-25T02:29:35.907Z,82.35
2019-04-25T02:30:35.887Z,81.97
2019-04-25T02:31:35.832Z,82.35
2019-04-25T02:32:37.080Z,82.35
2019-04-25T02:33:35.698Z,82.26
2019-04-25T02:34:35.649Z,82.26
2019-04-25T02:35:35.596Z,82.35
2019-04-25T02:36:35.575Z,82.07
2019-04-25T02:37:35.503Z,82.07
2019-04-25T02:38:35.439Z,82.07
2019-04-25T02:39:37.440Z,82.35
2019-04-25T02:40:35.337Z,82.17
2019-04-25T02:41:35.284Z,82.35
2019-04-25T02:42:35.257Z,82.35
2019-04-25T02:43:35.309Z,82.35
2019-04-25T02:44:35.126Z,82.35
2019-04-25T02:45:35.080Z,81.97
2019-04-25T02:46:37.222Z,82.26
2019-04-25T02:47:35.013Z,82.17
2019-04-25T02:48:34.921Z,82.17
2019-04-25T02:49:38.868Z,82.17
2019-04-25T02:50:34.817Z,82.35
2019-04-25T02:51:35.090Z,81.97
2019-04-25T02:52:34.739Z,82.17
2019-04-25T02:53:37.260Z,82.35
2019-04-25T02:54:34.996Z,82.73
2019-04-25T02:55:37.593Z,82.35
2019-04-25T02:56:38.482Z,82.17
2019-04-25T02:57:34.694Z,82.83
2019-04-25T02:58:34.421Z,81.97
2019-04-25T02:59:36.883Z,82.31
2019-04-25T03:00:51.841Z,82.83
2019-04-25T03:01:34.372Z,82.69
2019-04-25T03:02:34.295Z,82.31
2019-04-25T03:03:34.761Z,83.07
2019-04-25T03:04:34.092Z,83.07
2019-04-25T03:05:35.447Z,82.79
2019-04-25T03:06:35.035Z,82.69
2019-04-25T03:07:34.631Z,82.89
2019-04-25T03:08:35.475Z,82.89
2019-04-25T03:09:35.182Z,82.60
2019-04-25T03:10:34.931Z,82.79
2019-04-25T03:11:34.686Z,82.79
2019-04-25T03:12:36.618Z,82.98
2019-04-25T03:13:34.314Z,82.50
2019-04-25T03:14:35.120Z,82.69
2019-04-25T03:15:36.165Z,82.69
2019-04-25T03:16:34.728Z,82.79
2019-04-25T03:17:34.253Z,82.31
2019-04-25T03:18:34.832Z,82.60
2019-04-25T03:19:34.180Z,82.98
2019-04-25T03:20:35.406Z,82.89
2019-04-25T03:21:35.267Z,82.60
2019-04-25T03:22:34.503Z,82.60
2019-04-25T03:23:34.899Z,82.69
2019-04-25T03:24:35.102Z,83.45
2019-04-25T03:25:33.574Z,82.89
2019-04-25T03:26:40.401Z,82.79
2019-04-25T03:27:34.028Z,82.79
2019-04-25T03:28:33.997Z,82.60
2019-04-25T03:29:34.175Z,83.36
2019-04-25T03:30:35.316Z,82.50
2019-04-25T03:31:34.938Z,82.60
2019-04-25T03:32:35.322Z,83.45
2019-04-25T03:33:37.729Z,83.36
2019-04-25T03:34:34.903Z,82.98
2019-04-25T03:35:33.240Z,83.07
2019-04-25T03:36:33.802Z,83.07
2019-04-25T03:37:33.042Z,83.26
2019-04-25T03:38:34.151Z,83.45
2019-04-25T03:39:33.575Z,83.45
2019-04-25T03:40:32.213Z,83.45
2019-04-25T03:41:32.161Z,83.65
2019-04-25T03:42:32.131Z,83.36
2019-04-25T03:43:33.258Z,83.26
2019-04-25T03:44:33.668Z,83.07
2019-04-25T03:45:33.271Z,83.36
2019-04-25T03:46:33.320Z,83.26
2019-04-25T03:47:33.199Z,83.65
2019-04-25T03:48:31.798Z,83.55
2019-04-25T03:49:31.744Z,83.55
2019-04-25T03:50:31.683Z,83.65
2019-04-25T03:51:31.635Z,83.55
2019-04-25T03:52:33.025Z,83.51
2019-04-25T03:53:31.530Z,83.51
2019-04-25T03:54:31.471Z,83.61
2019-04-25T03:55:31.426Z,83.41
2019-04-25T03:56:31.380Z,83.55
2019-04-25T03:57:31.347Z,83.51
2019-04-25T03:58:31.271Z,83.61
2019-04-25T03:59:31.220Z,83.55
2019-04-25T04:00:31.174Z,83.51
2019-04-25T04:01:31.114Z,83.51
2019-04-25T04:02:31.087Z,83.61
2019-04-25T04:03:31.036Z,83.65
2019-04-25T04:04:30.956Z,83.70
2019-04-25T04:05:30.913Z,83.61
2019-04-25T04:06:30.859Z,83.89
2019-04-25T04:07:30.798Z,83.70
2019-04-25T04:08:30.771Z,84.08
2019-04-25T04:09:30.702Z,84.17
2019-04-25T04:10:30.645Z,83.89
2019-04-25T04:11:30.593Z,83.98
2019-04-25T04:12:30.540Z,83.98
2019-04-25T04:13:30.537Z,83.70
2019-04-25T04:14:30.436Z,84.22
2019-04-25T04:15:30.376Z,83.65
2019-04-25T04:16:30.323Z,83.84
2019-04-25T04:17:30.277Z,83.84
2019-04-25T04:18:30.250Z,83.80
2019-04-25T04:19:30.169Z,83.55
2019-04-25T04:20:30.121Z,83.55
2019-04-25T04:21:30.070Z,83.55
2019-04-25T04:22:30.014Z,83.45
2019-04-25T04:23:29.990Z,83.26
2019-04-25T04:24:29.910Z,83.74
2019-04-25T04:25:29.854Z,83.74
2019-04-25T04:26:29.802Z,83.26
2019-04-25T04:27:29.745Z,82.98
2019-04-25T04:28:29.724Z,82.98
2019-04-25T04:29:29.648Z,84.03
2019-04-25T04:30:29.598Z,83.65
2019-04-25T04:31:29.541Z,83.07
2019-04-25T04:32:29.494Z,83.74
2019-04-25T04:33:32.297Z,83.36
2019-04-25T04:34:29.387Z,83.36
2019-04-25T04:35:29.328Z,83.17
2019-04-25T04:36:29.276Z,83.36
2019-04-25T04:37:29.233Z,83.36
2019-04-25T04:38:29.202Z,83.17
2019-04-25T04:39:29.126Z,83.26
2019-04-25T04:40:29.067Z,83.36
2019-04-25T04:41:29.020Z,82.98
2019-04-25T04:42:28.960Z,83.45
2019-04-25T04:43:28.936Z,83.26
2019-04-25T04:44:28.861Z,83.26
2019-04-25T04:45:28.810Z,82.98
2019-04-25T04:46:28.752Z,83.55
2019-04-25T04:47:28.707Z,83.45
2019-04-25T04:48:28.675Z,83.65
2019-04-25T04:49:28.596Z,83.45
2019-04-25T04:50:28.545Z,83.65
2019-04-25T04:51:28.496Z,83.26
2019-04-25T04:52:28.444Z,82.89
2019-04-25T04:53:28.415Z,82.60
2019-04-25T04:54:28.338Z,83.65
2019-04-25T04:55:28.288Z,83.45
2019-04-25T04:56:28.241Z,83.65
2019-04-25T04:57:33.265Z,82.69
2019-04-25T04:58:28.154Z,82.60
2019-04-25T04:59:28.077Z,83.36
2019-04-25T05:00:28.023Z,82.69
2019-04-25T05:01:27.972Z,82.79
2019-04-25T05:02:27.918Z,82.69
2019-04-25T05:03:27.898Z,82.50
2019-04-25T05:04:27.818Z,82.69
2019-04-25T05:05:30.424Z,82.98
2019-04-25T05:06:27.706Z,83.26
2019-04-25T05:07:27.659Z,82.69
2019-04-25T05:08:27.633Z,82.69
2019-04-25T05:09:27.553Z,82.79
2019-04-25T05:10:27.503Z,82.79
2019-04-25T05:11:27.453Z,82.98
2019-04-25T05:12:27.398Z,82.98
2019-04-25T05:13:27.372Z,82.98
2019-04-25T05:14:27.295Z,83.17
2019-04-25T05:15:27.244Z,82.98
2019-04-25T05:16:27.193Z,83.17
2019-04-25T05:17:27.133Z,82.98
2019-04-25T05:18:37.473Z,82.89
2019-04-25T05:19:27.039Z,82.89
2019-04-25T05:20:26.983Z,82.26
2019-04-25T05:21:26.923Z,82.17
2019-04-25T05:22:26.877Z,82.45
2019-04-25T05:23:26.848Z,82.73
2019-04-25T05:24:26.775Z,82.54
2019-04-25T05:25:26.719Z,82.26
2019-04-25T05:26:26.667Z,82.64
2019-04-25T05:27:37.106Z,82.17
2019-04-25T05:28:26.566Z,82.35
2019-04-25T05:29:26.761Z,82.30
2019-04-25T05:30:26.696Z,82.11
2019-04-25T05:31:26.406Z,81.63
2019-04-25T05:32:26.388Z,81.44
2019-04-25T05:33:26.308Z,80.96
2019-04-25T05:34:26.279Z,80.77
2019-04-25T05:35:26.201Z,80.62
2019-04-25T05:36:26.145Z,80.05
2019-04-25T05:37:26.451Z,80.05
2019-04-25T05:38:26.044Z,80.05
2019-04-25T05:39:26.020Z,79.48
2019-04-25T05:40:25.946Z,79.52
2019-04-25T05:41:25.891Z,79.61
2019-04-25T05:42:25.841Z,79.61
2019-04-25T05:43:25.869Z,78.75
2019-04-25T05:44:27.291Z,79.43
2019-04-25T05:45:25.757Z,78.70
2019-04-25T05:46:26.322Z,78.79
2019-04-25T05:47:26.140Z,79.17
2019-04-25T05:48:26.341Z,78.41
2019-04-25T05:49:26.298Z,78.31
2019-04-25T05:50:26.240Z,78.26
2019-04-25T05:51:25.963Z,77.87
2019-04-25T05:52:26.128Z,77.97
2019-04-25T05:53:26.205Z,78.16
2019-04-25T05:54:25.679Z,77.97
2019-04-25T05:55:25.284Z,77.21
2019-04-25T05:56:26.940Z,77.01
2019-04-25T05:57:26.038Z,76.96
2019-04-25T05:58:25.911Z,76.57
2019-04-25T05:59:26.099Z,76.29
2019-04-25T06:00:25.961Z,76.20
2019-04-25T06:01:27.598Z,76.10
2019-04-25T06:02:25.660Z,75.62
2019-04-25T06:03:26.210Z,75.62
2019-04-25T06:04:25.681Z,75.95
2019-04-25T06:05:26.386Z,76.14
2019-04-25T06:06:24.791Z,75.37
2019-04-25T06:07:25.786Z,75.09
2019-04-25T06:08:25.845Z,74.90
2019-04-25T06:09:25.102Z,74.99
2019-04-25T06:10:25.693Z,75.27
2019-04-25T06:11:25.096Z,74.61
2019-04-25T06:12:24.731Z,74.70
2019-04-25T06:13:26.451Z,73.84
2019-04-25T06:14:25.398Z,74.04
2019-04-25T06:15:25.019Z,74.74
2019-04-25T06:16:27.045Z,74.07
2019-04-25T06:17:24.873Z,73.97
2019-04-25T06:18:24.834Z,74.36
2019-04-25T06:19:25.228Z,73.88
2019-04-25T06:20:24.711Z,73.97
2019-04-25T06:21:24.582Z,73.88
2019-04-25T06:22:24.673Z,74.36
2019-04-25T06:23:24.604Z,73.69
2019-04-25T06:24:25.744Z,74.07
2019-04-25T06:25:29.266Z,73.59
2019-04-25T06:26:34.076Z,72.73
2019-04-25T06:27:24.325Z,73.79
2019-04-25T06:28:24.004Z,74.01
2019-04-25T06:29:24.531Z,74.01
2019-04-25T06:30:24.922Z,73.91
2019-04-25T06:31:24.083Z,72.96
2019-04-25T06:32:24.952Z,73.54
2019-04-25T06:33:24.665Z,73.34
2019-04-25T06:34:25.414Z,73.34
2019-04-25T06:35:25.866Z,72.86
2019-04-25T06:36:24.541Z,73.24
2019-04-25T06:37:24.642Z,72.77
2019-04-25T06:38:24.901Z,72.71
2019-04-25T06:39:24.367Z,72.42
2019-04-25T06:40:24.155Z,72.90
2019-04-25T06:41:24.666Z,72.13
2019-04-25T06:42:24.590Z,72.23
2019-04-25T06:43:24.578Z,72.80
2019-04-25T06:44:24.355Z,71.84
2019-04-25T06:45:25.136Z,72.90
2019-04-25T06:46:24.478Z,72.71
2019-04-25T06:47:24.469Z,71.84
2019-04-25T06:48:24.284Z,72.90
2019-04-25T06:49:25.112Z,72.80
2019-04-25T06:50:23.084Z,72.42
2019-04-25T06:51:22.452Z,71.17
2019-04-25T06:52:26.143Z,71.21
2019-04-25T06:53:23.098Z,70.35
2019-04-25T06:54:25.263Z,69.93
2019-04-25T06:55:23.648Z,70.12
2019-04-25T06:56:24.043Z,71.08
2019-04-25T06:57:22.190Z,71.17
2019-04-25T06:58:23.266Z,69.74
2019-04-25T06:59:25.535Z,70.70
2019-04-25T07:00:24.253Z,70.41
2019-04-25T07:01:24.630Z,70.25
2019-04-25T07:02:23.436Z,70.73
2019-04-25T07:03:22.775Z,71.50
2019-04-25T07:04:22.767Z,70.15
2019-04-25T07:05:31.005Z,69.39
2019-04-25T07:06:23.296Z,69.10
2019-04-25T07:07:24.266Z,70.06
2019-04-25T07:08:21.581Z,69.58
2019-04-25T07:09:24.165Z,70.06
2019-04-25T07:10:23.215Z,69.87
2019-04-25T07:11:21.435Z,68.72
2019-04-25T07:12:24.058Z,69.07
2019-04-25T07:13:21.340Z,70.54
2019-04-25T07:14:21.285Z,71.88
2019-04-25T07:15:21.264Z,72.17
2019-04-25T07:16:21.193Z,71.98
2019-04-25T07:17:21.149Z,72.07
2019-04-25T07:18:21.090Z,71.56
2019-04-25T07:19:21.049Z,71.56
2019-04-25T07:20:21.024Z,71.66
2019-04-25T07:21:20.947Z,72.03
2019-04-25T07:22:20.900Z,71.84
2019-04-25T07:23:20.852Z,71.08
2019-04-25T07:24:20.802Z,71.56
2019-04-25T07:25:20.774Z,70.98
2019-04-25T07:26:20.713Z,70.50
2019-04-25T07:27:20.656Z,70.92
2019-04-25T07:28:24.243Z,70.64
2019-04-25T07:29:20.561Z,69.96
2019-04-25T07:30:27.233Z,69.42
2019-04-25T07:31:20.462Z,70.00
2019-04-25T07:32:20.417Z,69.23
2019-04-25T07:33:20.364Z,69.13
2019-04-25T07:34:20.306Z,67.79
2019-04-25T07:35:20.293Z,68.56
2019-04-25T07:36:20.222Z,68.37
2019-04-25T07:37:20.169Z,68.75
2019-04-25T07:38:20.123Z,69.36
2019-04-25T07:39:20.073Z,67.73
2019-04-25T07:40:20.052Z,67.54
2019-04-25T07:41:19.972Z,66.58
2019-04-25T07:42:19.929Z,67.44
2019-04-25T07:43:19.873Z,68.02
2019-04-25T07:44:28.464Z,68.02
2019-04-25T07:45:19.802Z,67.83
2019-04-25T07:46:19.736Z,68.50
2019-04-25T07:47:19.719Z,66.96
2019-04-25T07:48:19.636Z,67.25
2019-04-25T07:49:19.590Z,67.73
2019-04-25T07:50:19.566Z,68.30
2019-04-25T07:51:19.495Z,68.18
2019-04-25T07:52:19.443Z,67.12
2019-04-25T07:53:19.392Z,67.22
2019-04-25T07:54:19.351Z,68.08
2019-04-25T07:55:19.588Z,68.75
2019-04-25T07:56:19.254Z,69.13
2019-04-25T07:57:19.202Z,69.13
2019-04-25T07:58:19.155Z,69.07
2019-04-25T07:59:19.107Z,69.26
2019-04-25T08:00:19.084Z,66.67
2019-04-25T08:01:19.006Z,66.64
2019-04-25T08:02:18.958Z,65.97
2019-04-25T08:03:18.898Z,66.93
2019-04-25T08:04:18.870Z,68.08
2019-04-25T08:05:18.838Z,66.83
2019-04-25T08:06:18.768Z,66.74
2019-04-25T08:07:18.722Z,68.95
2019-04-25T08:08:18.673Z,66.64
2019-04-25T08:09:18.626Z,67.32
2019-04-25T08:10:18.618Z,67.50
2019-04-25T08:11:18.528Z,67.32
2019-04-25T08:12:18.479Z,66.64
2019-04-25T08:13:18.436Z,68.18
2019-04-25T08:14:18.383Z,67.02
2019-04-25T08:15:18.337Z,68.46
2019-04-25T08:16:18.305Z,67.69
2019-04-25T08:17:18.243Z,68.56
2019-04-25T08:18:18.191Z,68.37
2019-04-25T08:19:18.140Z,68.08
2019-04-25T08:20:18.092Z,66.74
2019-04-25T08:21:18.078Z,68.37
2019-04-25T08:22:18.001Z,68.37
2019-04-25T08:23:17.947Z,68.46
2019-04-25T08:24:17.899Z,66.83
2019-04-25T08:25:17.865Z,66.45
2019-04-25T08:26:17.828Z,66.26
2019-04-25T08:27:17.762Z,66.49
2019-04-25T08:28:17.710Z,66.86
2019-04-25T08:29:17.658Z,66.49
2019-04-25T08:30:17.595Z,68.02
2019-04-25T08:31:17.585Z,66.19
2019-04-25T08:32:17.510Z,65.65
2019-04-25T08:33:17.466Z,66.80
2019-04-25T08:34:17.418Z,67.09
2019-04-25T08:35:17.359Z,66.90
2019-04-25T08:36:17.343Z,66.71
2019-04-25T08:37:20.759Z,66.13
2019-04-25T08:38:17.224Z,65.97
2019-04-25T08:39:17.180Z,65.46
2019-04-25T08:40:17.129Z,63.25
2019-04-25T08:41:17.107Z,62.96
2019-04-25T08:42:17.029Z,62.96
2019-04-25T08:43:16.983Z,62.87
2019-04-25T08:44:16.938Z,62.77
2019-04-25T08:45:16.885Z,63.06
2019-04-25T08:46:16.874Z,63.06
2019-04-25T08:47:16.793Z,62.68
2019-04-25T08:48:16.744Z,62.68
2019-04-25T08:49:16.690Z,61.52
2019-04-25T08:50:26.991Z,61.24
2019-04-25T08:51:16.625Z,62.10
2019-04-25T08:52:16.545Z,62.77
2019-04-25T08:53:16.512Z,62.32
2019-04-25T08:54:16.468Z,61.72
2019-04-25T08:55:16.407Z,60.98
2019-04-25T08:56:16.383Z,60.50
2019-04-25T08:57:16.304Z,61.08
2019-04-25T08:58:16.265Z,61.17
2019-04-25T08:59:16.234Z,60.21
2019-04-25T09:00:16.169Z,61.84
2019-04-25T09:01:16.150Z,61.46
2019-04-25T09:02:16.075Z,62.52
2019-04-25T09:03:16.025Z,60.21
2019-04-25T09:04:15.982Z,59.73
2019-04-25T09:05:16.127Z,60.21
2019-04-25T09:06:15.902Z,60.60
2019-04-25T09:07:15.867Z,59.92
2019-04-25T09:08:15.786Z,59.99
2019-04-25T09:09:15.739Z,61.65
2019-04-25T09:10:15.696Z,61.75
2019-04-25T09:11:15.664Z,62.04
2019-04-25T09:12:15.584Z,63.09
2019-04-25T09:13:15.540Z,62.04
2019-04-25T09:14:15.498Z,61.94
2019-04-25T09:15:15.447Z,61.55
2019-04-25T09:16:15.608Z,63.28
2019-04-25T09:17:15.348Z,62.42
2019-04-25T09:18:15.313Z,62.61
2019-04-25T09:19:15.260Z,61.78
2019-04-25T09:20:15.206Z,63.60
2019-04-25T09:21:15.189Z,63.89
2019-04-25T09:22:15.113Z,62.55
2019-04-25T09:23:15.068Z,61.97
2019-04-25T09:24:15.017Z,63.41
2019-04-25T09:25:14.973Z,60.34
2019-04-25T09:26:14.950Z,60.34
2019-04-25T09:27:14.877Z,61.40
2019-04-25T09:28:14.827Z,61.20
2019-04-25T09:29:19.021Z,61.11
2019-04-25T09:30:14.733Z,61.68
2019-04-25T09:31:14.706Z,62.45
2019-04-25T09:32:14.667Z,62.84
2019-04-25T09:33:14.587Z,62.42
2019-04-25T09:34:14.532Z,62.42
2019-04-25T09:35:14.497Z,62.42
2019-04-25T09:36:14.453Z,62.52
2019-04-25T09:37:14.420Z,61.75
2019-04-25T09:38:14.351Z,62.23
2019-04-25T09:39:14.295Z,61.46
2019-04-25T09:40:14.257Z,61.75
2019-04-25T09:41:15.342Z,62.45
2019-04-25T09:42:14.269Z,62.64
2019-04-25T09:43:14.113Z,61.49
2019-04-25T09:44:14.434Z,61.01
2019-04-25T09:45:15.255Z,60.24
2019-04-25T09:46:13.967Z,60.34
2019-04-25T09:47:13.943Z,60.34
2019-04-25T09:48:13.877Z,60.34
2019-04-25T09:49:14.168Z,62.00
2019-04-25T09:50:13.944Z,61.33
2019-04-25T09:51:13.734Z,59.69
2019-04-25T09:52:13.718Z,59.47
2019-04-25T09:53:21.750Z,60.24
2019-04-25T09:54:15.182Z,59.19
2019-04-25T09:55:13.544Z,59.57
2019-04-25T09:56:14.054Z,59.66
2019-04-25T09:57:13.515Z,59.99
2019-04-25T09:58:13.577Z,60.17
2019-04-25T09:59:13.817Z,58.92
2019-04-25T10:00:13.323Z,59.89
2019-04-25T10:01:13.913Z,59.41
2019-04-25T10:02:13.237Z,58.25
2019-04-25T10:03:13.531Z,58.06
2019-04-25T10:04:13.118Z,57.77
2019-04-25T10:05:13.976Z,57.20
2019-04-25T10:06:13.398Z,57.87
2019-04-25T10:07:14.277Z,57.77
2019-04-25T10:08:13.470Z,57.77
2019-04-25T10:09:13.570Z,57.87
2019-04-25T10:10:13.517Z,57.39
2019-04-25T10:11:12.783Z,57.48
2019-04-25T10:12:13.006Z,57.00
2019-04-25T10:13:12.696Z,57.77
2019-04-25T10:14:13.603Z,57.39
2019-04-25T10:15:14.131Z,57.29
2019-04-25T10:16:12.546Z,57.48
2019-04-25T10:17:13.729Z,57.58
2019-04-25T10:18:14.180Z,57.20
2019-04-25T10:19:13.257Z,57.87
2019-04-25T10:20:14.464Z,58.03
2019-04-25T10:21:14.131Z,57.84
2019-04-25T10:22:13.662Z,58.32
2019-04-25T10:23:13.619Z,58.89
2019-04-25T10:24:13.602Z,58.61
2019-04-25T10:25:13.314Z,58.99
2019-04-25T10:26:12.067Z,59.22
2019-04-25T10:27:12.061Z,57.93
2019-04-25T10:28:13.221Z,58.25
2019-04-25T10:29:11.936Z,57.93
2019-04-25T10:30:17.838Z,59.28
2019-04-25T10:31:13.502Z,58.99
2019-04-25T10:32:13.006Z,58.89
2019-04-25T10:33:11.745Z,59.66
2019-04-25T10:34:11.693Z,60.24
2019-04-25T10:35:11.653Z,61.20
2019-04-25T10:36:11.602Z,61.78
2019-04-25T10:37:11.581Z,62.93
2019-04-25T10:38:11.503Z,62.45
2019-04-25T10:39:11.545Z,63.02
2019-04-25T10:40:13.279Z,62.74
2019-04-25T10:41:11.367Z,63.70
2019-04-25T10:42:11.344Z,62.16
2019-04-25T10:43:11.268Z,61.87
2019-04-25T10:44:11.223Z,62.84
2019-04-25T10:45:21.301Z,63.48
2019-04-25T10:46:11.128Z,63.76
2019-04-25T10:47:11.102Z,63.48
2019-04-25T10:48:11.038Z,63.67
2019-04-25T10:49:10.982Z,63.76
2019-04-25T10:50:10.939Z,64.34
2019-04-25T10:51:10.884Z,65.11
2019-04-25T10:52:10.836Z,62.71
2019-04-25T10:53:10.816Z,63.86
2019-04-25T10:54:10.737Z,63.96
2019-04-25T10:55:10.695Z,63.38
2019-04-25T10:56:10.648Z,63.67
2019-04-25T10:57:10.601Z,63.67
2019-04-25T10:58:10.580Z,63.96
2019-04-25T10:59:10.502Z,61.94
2019-04-25T11:00:10.466Z,62.71
2019-04-25T11:01:10.410Z,62.71
2019-04-25T11:02:10.358Z,63.79
2019-04-25T11:03:10.336Z,63.41
2019-04-25T11:04:10.269Z,63.79
2019-04-25T11:05:10.221Z,63.22
2019-04-25T11:06:10.175Z,62.45
2019-04-25T11:07:10.126Z,62.74
2019-04-25T11:08:10.099Z,62.74
2019-04-25T11:09:10.035Z,62.64
2019-04-25T11:10:09.984Z,61.58
2019-04-25T11:11:09.933Z,61.49
2019-04-25T11:12:09.889Z,61.68
2019-04-25T11:13:09.866Z,62.74
2019-04-25T11:14:09.796Z,62.55
2019-04-25T11:15:09.739Z,62.74
2019-04-25T11:16:09.699Z,62.84
2019-04-25T11:17:09.646Z,63.12
2019-04-25T11:18:09.627Z,63.12
2019-04-25T11:19:09.558Z,63.02
2019-04-25T11:20:09.506Z,61.61
2019-04-25T11:21:09.464Z,62.87
2019-04-25T11:22:09.413Z,62.68
2019-04-25T11:23:09.388Z,63.06
2019-04-25T11:24:09.321Z,61.91
2019-04-25T11:25:09.268Z,61.71
2019-04-25T11:26:09.223Z,60.75
2019-04-25T11:27:09.171Z,61.81
2019-04-25T11:28:09.155Z,61.33
2019-04-25T11:29:09.082Z,61.81
2019-04-25T11:30:11.398Z,60.37
2019-04-25T11:31:08.992Z,60.56
2019-04-25T11:32:08.938Z,61.55
2019-04-25T11:33:08.914Z,59.44
2019-04-25T11:34:08.843Z,59.24
2019-04-25T11:35:08.795Z,59.53
2019-04-25T11:36:08.752Z,59.44
2019-04-25T11:37:08.707Z,60.30
2019-04-25T11:38:08.682Z,59.72
2019-04-25T11:39:08.615Z,59.72
2019-04-25T11:40:08.563Z,60.01
2019-04-25T11:41:08.515Z,60.01
2019-04-25T11:42:08.468Z,60.33
2019-04-25T11:43:08.448Z,59.17
2019-04-25T11:44:08.377Z,58.70
2019-04-25T11:45:08.327Z,58.89
2019-04-25T11:46:08.300Z,59.08
2019-04-25T11:47:08.716Z,60.04
2019-04-25T11:48:08.216Z,60.49
2019-04-25T11:49:08.140Z,58.57
2019-04-25T11:50:08.092Z,59.34
2019-04-25T11:51:08.048Z,59.05
2019-04-25T11:52:08.005Z,59.34
2019-04-25T11:53:07.983Z,59.34
2019-04-25T11:54:07.915Z,59.34
2019-04-25T11:55:07.861Z,59.92
2019-04-25T11:56:07.800Z,60.11
2019-04-25T11:57:07.770Z,60.52
2019-04-25T11:58:07.744Z,60.24
2019-04-25T11:59:07.679Z,58.98
2019-04-25T12:00:07.629Z,58.70
2019-04-25T12:01:07.591Z,58.79
2019-04-25T12:02:07.544Z,58.79
2019-04-25T12:03:07.535Z,59.40
2019-04-25T12:04:07.449Z,59.49
2019-04-25T12:05:07.395Z,58.63
2019-04-25T12:06:07.348Z,58.63
2019-04-25T12:07:08.594Z,58.63
2019-04-25T12:08:07.293Z,58.47
2019-04-25T12:09:07.211Z,58.63
2019-04-25T12:10:07.166Z,58.53
2019-04-25T12:11:07.182Z,57.98
2019-04-25T12:12:07.073Z,58.05
2019-04-25T12:13:07.024Z,57.79
2019-04-25T12:14:07.010Z,57.31
2019-04-25T12:15:06.945Z,57.31
2019-04-25T12:16:06.889Z,57.12
2019-04-25T12:17:06.846Z,57.12
2019-04-25T12:18:06.794Z,57.40
2019-04-25T12:19:06.772Z,56.25
2019-04-25T12:20:06.702Z,56.05
2019-04-25T12:21:06.658Z,55.48
2019-04-25T12:22:06.606Z,55.29
2019-04-25T12:23:10.421Z,55.87
2019-04-25T12:24:06.540Z,57.14
2019-04-25T12:25:06.469Z,56.76
2019-04-25T12:26:06.429Z,55.41
2019-04-25T12:27:06.378Z,55.41
2019-04-25T12:28:06.326Z,56.27
2019-04-25T12:29:06.308Z,56.27
2019-04-25T12:30:06.231Z,55.99
2019-04-25T12:31:06.189Z,55.31
2019-04-25T12:32:06.147Z,55.12
2019-04-25T12:33:18.047Z,55.41
2019-04-25T12:34:06.078Z,55.51
2019-04-25T12:35:06.305Z,54.18
2019-04-25T12:36:05.961Z,54.38
2019-04-25T12:37:06.760Z,53.09
2019-04-25T12:38:05.872Z,53.41
2019-04-25T12:39:07.063Z,53.41
2019-04-25T12:40:06.093Z,53.51
2019-04-25T12:41:05.726Z,53.22
2019-04-25T12:42:05.680Z,52.35
2019-04-25T12:43:05.632Z,53.09
2019-04-25T12:44:05.612Z,52.73
2019-04-25T12:45:05.541Z,52.45
2019-04-25T12:46:05.494Z,53.48
2019-04-25T12:47:05.447Z,53.77
2019-04-25T12:48:05.409Z,53.67
2019-04-25T12:49:05.382Z,52.64
2019-04-25T12:50:05.314Z,52.83
2019-04-25T12:51:05.263Z,52.55
2019-04-25T12:52:05.220Z,53.03